Portada
METAR-TAF:

METAR-TAF

Aeropuertos :

Aeropuerto de Sylt

Westerland, Alemania

latitud: 54-55N, longitud: 008-21E, altitud: 16 m

Observación

El informe se hizo hace 25 minutos, a las 02:20 UTC
Viento 6 kt del este-sureste
Temperatura 11°C
Humedad 82%
Presión 1028 hPa
Visibilidad 10 km o más

METAR: EDXW 010220Z AUTO 11006KT 9999 // NCD 11/08 Q1028

Hora: 04:45 (02:45 UTC)

Pronóstico

El informe se hizo hace 9 horas y 45 minutos, a las 17:00 UTC
Pronóstico válido del 31 a las 18 UTC al 31 a las 21 UTC
Viento 9 kt del este-noreste
Visibilidad 10 km o más
sin nubes por debajo de 1500 m y sin presencia de cumulonimbus.

TAF: EDXW 311700Z 3118/3121 07009KT CAVOK

Observaciones y pronósticos meteorológicos de más de 4000 aeropuertos (mensajes METAR y TAF).

Los puntos amarillos y rojos representan las estaciones disponibles.

Ponga el ratón en el punto deseado para ver el nombre de la estación.

Haga clic para ver las observaciones y los pronósticos meteorológicos.

Para cambiar el mapa : haga clic en los botones verdes con una cruz de color negro para hacer un zoom, en el botón verde con un guión para alejar o en las flechas verdes para mapas adyacentes.


METAR-TAF: